createdAt,value
2022-09-05T00:00:19.537Z,19.07
2022-09-05T00:03:02.441Z,19.12
2022-09-05T00:06:02.291Z,19.20
2022-09-05T00:08:39.792Z,19.11
2022-09-05T00:11:41.523Z,18.95
2022-09-05T00:14:34.217Z,19.00
2022-09-05T00:17:22.514Z,19.04
2022-09-05T00:24:35.032Z,18.95
2022-09-05T00:24:36.823Z,18.96
2022-09-05T00:26:50.007Z,18.85
2022-09-05T00:29:44.914Z,18.54
2022-09-05T00:32:26.481Z,18.56
2022-09-05T00:35:12.924Z,18.93
2022-09-05T00:37:42.299Z,18.68
2022-09-05T00:40:20.020Z,18.67
2022-09-05T00:42:49.521Z,18.68
2022-09-05T00:45:27.425Z,18.65
2022-09-05T00:47:57.485Z,18.67
2022-09-05T00:50:47.190Z,18.71
2022-09-05T00:53:19.053Z,18.81
2022-09-05T00:56:33.734Z,18.84
2022-09-05T00:59:22.201Z,18.65
2022-09-05T01:02:23.989Z,18.87
2022-09-05T01:05:06.452Z,18.95
2022-09-05T01:08:23.072Z,18.85
2022-09-05T01:10:53.524Z,18.28
2022-09-05T01:13:58.247Z,18.33
2022-09-05T01:16:36.424Z,18.63
2022-09-05T01:19:15.820Z,18.51
2022-09-05T01:22:09.266Z,18.71
2022-09-05T01:24:47.661Z,18.49
2022-09-05T01:27:50.201Z,18.54
2022-09-05T01:30:51.064Z,18.37
2022-09-05T01:33:37.446Z,18.65
2022-09-05T01:36:07.862Z,18.54
2022-09-05T01:40:11.659Z,18.58
2022-09-05T01:41:49.401Z,18.32
2022-09-05T01:44:43.941Z,18.56
2022-09-05T01:47:29.642Z,18.50
2022-09-05T01:50:06.173Z,18.53
2022-09-05T01:52:38.409Z,18.24
2022-09-05T01:55:28.096Z,18.34
2022-09-05T01:58:13.598Z,18.24
2022-09-05T02:01:25.480Z,18.46
2022-09-05T02:04:18.454Z,18.59
2022-09-05T02:06:55.897Z,18.26
2022-09-05T02:09:56.837Z,18.14
2022-09-05T02:12:35.369Z,18.15
2022-09-05T02:15:08.436Z,18.31
2022-09-05T02:17:49.567Z,18.43
2022-09-05T02:20:34.751Z,18.41
2022-09-05T02:23:40.225Z,18.32
2022-09-05T02:26:26.872Z,18.05
2022-09-05T02:28:57.461Z,18.32
2022-09-05T02:31:48.297Z,18.17
2022-09-05T02:34:36.159Z,18.18
2022-09-05T02:38:56.702Z,18.26
2022-09-05T02:45:06.290Z,18.35
2022-09-05T02:45:09.513Z,18.21
2022-09-05T02:46:35.066Z,18.12
2022-09-05T02:49:47.308Z,18.38
2022-09-05T02:57:25.983Z,18.17
2022-09-05T02:57:34.042Z,18.34
2022-09-05T02:58:05.209Z,18.11
2022-09-05T03:00:42.494Z,17.97
2022-09-05T03:03:15.979Z,17.76
2022-09-05T03:06:34.184Z,18.04
2022-09-05T03:09:41.609Z,17.96
2022-09-05T03:12:32.037Z,17.79
2022-09-05T03:15:58.554Z,18.03
2022-09-05T03:18:44.809Z,18.05
2022-09-05T03:21:37.230Z,17.88
2022-09-05T03:24:29.657Z,18.08
2022-09-05T03:27:17.304Z,18.11
2022-09-05T03:30:18.369Z,17.87
2022-09-05T03:32:56.244Z,18.04
2022-09-05T03:35:53.077Z,17.83
2022-09-05T03:39:03.373Z,18.00
2022-09-05T03:42:05.699Z,17.87
2022-09-05T03:45:07.794Z,17.52
2022-09-05T03:47:46.050Z,17.96
2022-09-05T03:57:20.727Z,17.91
2022-09-05T03:57:20.827Z,17.93
2022-09-05T03:57:22.568Z,17.81
2022-09-05T03:59:36.178Z,17.80
2022-09-05T04:04:54.937Z,17.79
2022-09-05T04:08:18.856Z,16.39
2022-09-05T04:08:34.144Z,16.94
2022-09-05T04:11:06.064Z,17.24
2022-09-05T04:13:55.695Z,17.31
2022-09-05T04:16:50.984Z,17.75
2022-09-05T04:19:26.982Z,17.58
2022-09-05T04:22:06.539Z,17.55
2022-09-05T04:24:40.892Z,17.53
2022-09-05T04:27:27.954Z,17.40
2022-09-05T04:29:58.504Z,17.02
2022-09-05T04:32:57.657Z,17.35
2022-09-05T04:35:47.474Z,17.31
2022-09-05T04:38:15.897Z,17.55
2022-09-05T04:41:00.370Z,17.59
2022-09-05T04:43:32.902Z,17.81
2022-09-05T04:46:20.868Z,17.81
2022-09-05T04:48:54.701Z,17.78
2022-09-05T04:51:40.615Z,18.13
2022-09-05T04:54:50.131Z,18.21
2022-09-05T04:57:17.388Z,18.02
2022-09-05T05:06:10.314Z,18.60
2022-09-05T05:06:14.815Z,18.26
2022-09-05T05:06:15.300Z,18.33
2022-09-05T05:08:45.115Z,18.62
2022-09-05T05:18:01.501Z,18.36
2022-09-05T05:18:13.274Z,18.57
2022-09-05T05:18:16.248Z,18.91
2022-09-05T05:20:40.190Z,19.03
2022-09-05T05:23:16.215Z,18.96
2022-09-05T05:25:53.640Z,19.29
2022-09-05T05:28:31.540Z,19.54
2022-09-05T05:31:15.094Z,19.72
2022-09-05T05:33:48.175Z,19.73
2022-09-05T05:36:22.853Z,19.95
2022-09-05T05:39:23.652Z,20.00
2022-09-05T05:41:54.930Z,19.97
2022-09-05T05:44:28.196Z,19.93
2022-09-05T05:47:00.952Z,20.17
2022-09-05T05:49:53.566Z,20.21
2022-09-05T05:52:42.221Z,20.32
2022-09-05T05:55:50.669Z,20.40
2022-09-05T05:58:51.524Z,20.56
2022-09-05T06:01:50.229Z,20.64
2022-09-05T06:04:55.430Z,20.87
2022-09-05T06:10:06.482Z,20.62
2022-09-05T06:14:50.041Z,21.10
2022-09-05T06:15:04.591Z,21.08
2022-09-05T06:17:28.254Z,21.44
2022-09-05T06:22:03.951Z,21.54
2022-09-05T06:23:39.320Z,21.55
2022-09-05T06:26:17.266Z,21.62
2022-09-05T06:29:08.606Z,21.68
2022-09-05T06:32:00.381Z,21.58
2022-09-05T06:34:46.293Z,21.91
2022-09-05T06:37:20.089Z,21.80
2022-09-05T06:40:19.664Z,21.97
2022-09-05T06:43:04.466Z,21.86
2022-09-05T06:45:40.103Z,21.88
2022-09-05T06:48:21.421Z,22.02
2022-09-05T06:51:26.653Z,22.13
2022-09-05T06:54:02.066Z,22.15
2022-09-05T06:56:56.181Z,22.58
2022-09-05T06:59:35.776Z,22.67
2022-09-05T07:02:56.642Z,22.76
2022-09-05T07:05:38.309Z,22.72
2022-09-05T07:08:15.716Z,22.98
2022-09-05T07:11:16.709Z,23.46
2022-09-05T07:13:56.575Z,22.66
2022-09-05T07:16:38.471Z,23.09
2022-09-05T07:19:27.965Z,23.09
2022-09-05T07:22:29.544Z,23.02
2022-09-05T07:25:11.104Z,23.14
2022-09-05T07:28:26.207Z,23.48
2022-09-05T07:30:36.463Z,23.51
2022-09-05T07:33:03.935Z,23.41
2022-09-05T07:35:42.470Z,23.38
2022-09-05T07:38:26.794Z,23.38
2022-09-05T07:41:28.601Z,23.65
2022-09-05T07:44:23.298Z,23.68
2022-09-05T07:46:56.277Z,23.73
2022-09-05T07:49:24.488Z,23.86
2022-09-05T07:56:49.385Z,23.46
2022-09-05T07:56:59.386Z,23.37
2022-09-05T07:57:50.932Z,23.72
2022-09-05T08:00:26.907Z,23.48
2022-09-05T08:03:08.005Z,23.84
2022-09-05T08:05:39.501Z,24.34
2022-09-05T08:08:10.062Z,24.17
2022-09-05T08:11:24.317Z,24.48
2022-09-05T08:13:46.558Z,24.41
2022-09-05T08:16:17.211Z,24.56
2022-09-05T08:18:54.402Z,24.63
2022-09-05T08:21:49.348Z,24.58
2022-09-05T08:24:36.437Z,24.88
2022-09-05T08:27:16.063Z,24.73
2022-09-05T08:30:27.286Z,25.12
2022-09-05T08:32:49.138Z,24.91
2022-09-05T08:35:21.547Z,25.06
2022-09-05T08:37:50.216Z,24.88
2022-09-05T08:40:39.335Z,25.13
2022-09-05T08:46:36.914Z,24.89
2022-09-05T08:46:48.728Z,25.00
2022-09-05T08:49:40.364Z,25.02
2022-09-05T08:52:13.280Z,25.48
2022-09-05T08:55:17.874Z,25.66
2022-09-05T08:57:45.444Z,25.72
2022-09-05T09:00:20.151Z,25.76
2022-09-05T09:03:06.329Z,25.93
2022-09-05T09:06:14.507Z,25.79
2022-09-05T09:09:01.030Z,25.83
2022-09-05T09:11:44.087Z,25.48
2022-09-05T09:14:30.599Z,25.97
2022-09-05T09:17:23.529Z,25.97
2022-09-05T09:19:58.778Z,25.60
2022-09-05T09:23:32.051Z,25.71
2022-09-05T09:26:17.080Z,25.83
2022-09-05T09:28:52.262Z,25.34
2022-09-05T09:31:48.141Z,25.96
2022-09-05T09:34:24.542Z,25.94
2022-09-05T09:37:48.228Z,25.86
2022-09-05T09:40:26.473Z,25.44
2022-09-05T09:43:06.828Z,25.79
2022-09-05T09:45:55.174Z,25.85
2022-09-05T09:48:44.000Z,27.02
2022-09-05T09:51:44.633Z,29.56
2022-09-05T09:54:19.240Z,29.58
2022-09-05T09:57:11.676Z,29.09
2022-09-05T09:59:54.243Z,28.85
2022-09-05T10:05:21.056Z,28.77
2022-09-05T10:10:47.751Z,28.69
2022-09-05T10:10:54.589Z,31.20
2022-09-05T10:15:28.246Z,33.74
2022-09-05T10:18:27.439Z,32.73
2022-09-05T10:21:16.780Z,30.69
2022-09-05T10:24:21.996Z,29.23
2022-09-05T10:27:04.377Z,28.89
2022-09-05T10:30:07.711Z,28.47
2022-09-05T10:35:14.946Z,28.39
2022-09-05T10:36:24.519Z,28.51
2022-09-05T10:39:01.028Z,28.29
2022-09-05T10:41:38.823Z,28.19
2022-09-05T10:44:06.227Z,28.35
2022-09-05T10:47:04.678Z,27.97
2022-09-05T10:49:35.038Z,28.03
2022-09-05T10:52:24.681Z,27.91
2022-09-05T10:55:14.353Z,28.06
2022-09-05T10:58:17.051Z,27.98
2022-09-05T11:02:30.353Z,27.88
2022-09-05T11:03:54.380Z,27.79
2022-09-05T11:06:40.755Z,27.72
2022-09-05T11:09:16.428Z,27.63
2022-09-05T11:11:46.166Z,27.63
2022-09-05T11:14:39.022Z,27.53
2022-09-05T11:17:12.050Z,27.50
2022-09-05T11:19:45.050Z,27.55
2022-09-05T11:22:22.626Z,27.79
2022-09-05T11:25:01.031Z,27.82
2022-09-05T11:27:33.524Z,27.58
2022-09-05T11:30:06.599Z,27.46
2022-09-05T11:39:50.426Z,27.22
2022-09-05T11:39:51.927Z,27.41
2022-09-05T11:39:52.870Z,27.34
2022-09-05T11:42:20.613Z,27.61
2022-09-05T11:44:53.092Z,27.52
2022-09-05T11:47:27.939Z,27.72
2022-09-05T11:50:17.488Z,27.56
2022-09-05T11:53:06.798Z,27.50
2022-09-05T11:56:03.637Z,27.47
2022-09-05T11:58:56.124Z,27.16
2022-09-05T12:01:44.092Z,27.08
2022-09-05T12:04:27.670Z,27.40
2022-09-05T12:07:26.795Z,27.56
2022-09-05T12:10:46.282Z,27.70
2022-09-05T12:13:14.114Z,27.79
2022-09-05T12:15:52.064Z,27.60
2022-09-05T12:18:45.842Z,27.67
2022-09-05T12:21:31.867Z,27.69
2022-09-05T12:25:17.988Z,27.70
2022-09-05T12:30:00.774Z,27.89
2022-09-05T12:33:30.235Z,28.01
2022-09-05T12:36:06.283Z,27.91
2022-09-05T12:40:54.772Z,27.28
2022-09-05T12:41:46.106Z,27.69
2022-09-05T12:42:10.668Z,27.67
2022-09-05T12:44:41.560Z,27.67
2022-09-05T12:47:19.293Z,27.66
2022-09-05T12:50:15.239Z,27.66
2022-09-05T12:52:44.663Z,27.91
2022-09-05T12:55:22.934Z,28.03
2022-09-05T13:02:55.478Z,27.59
2022-09-05T13:03:11.420Z,27.74
2022-09-05T13:03:53.438Z,27.80
2022-09-05T13:06:39.129Z,27.76
2022-09-05T13:10:07.636Z,27.80
2022-09-05T13:14:54.433Z,28.07
2022-09-05T13:15:37.836Z,27.57
2022-09-05T13:18:11.056Z,27.86
2022-09-05T13:21:08.619Z,28.20
2022-09-05T13:24:12.229Z,27.58
2022-09-05T13:27:13.799Z,26.89
2022-09-05T13:31:24.839Z,27.46
2022-09-05T13:38:07.411Z,27.14
2022-09-05T13:38:15.757Z,27.65
2022-09-05T13:39:06.346Z,26.81
2022-09-05T13:41:43.491Z,27.20
2022-09-05T13:44:25.485Z,26.79
2022-09-05T13:47:00.817Z,27.12
2022-09-05T13:49:32.286Z,27.39
2022-09-05T13:52:29.368Z,27.44
2022-09-05T13:55:20.150Z,27.27
2022-09-05T13:58:23.944Z,26.71
2022-09-05T14:01:14.246Z,26.81
2022-09-05T14:10:37.113Z,26.94
2022-09-05T14:13:11.600Z,26.21
2022-09-05T14:15:59.839Z,25.94
2022-09-05T14:18:59.654Z,26.05
2022-09-05T14:21:29.073Z,26.25
2022-09-05T14:24:03.303Z,25.69
2022-09-05T14:26:34.192Z,26.18
2022-09-05T14:29:06.757Z,26.46
2022-09-05T14:37:39.113Z,26.83
2022-09-05T14:37:44.561Z,26.64
2022-09-05T14:38:14.555Z,26.93
2022-09-05T14:41:21.237Z,26.44
2022-09-05T14:44:15.487Z,26.55
2022-09-05T14:47:35.597Z,26.38
2022-09-05T14:50:17.945Z,26.83
2022-09-05T14:57:02.080Z,26.62
2022-09-05T15:02:46.051Z,27.10
2022-09-05T15:02:58.672Z,26.51
2022-09-05T15:05:27.954Z,26.82
2022-09-05T15:08:03.240Z,27.12
2022-09-05T15:12:20.002Z,26.65
2022-09-05T15:13:25.674Z,26.94
2022-09-05T15:16:03.012Z,26.93
2022-09-05T15:18:32.430Z,26.90
2022-09-05T15:21:33.973Z,26.98
2022-09-05T15:24:13.447Z,27.02
2022-09-05T15:26:52.765Z,26.99
2022-09-05T15:29:34.360Z,26.90
2022-09-05T15:32:14.912Z,27.15
2022-09-05T15:34:42.790Z,27.22
2022-09-05T15:37:28.329Z,27.11
2022-09-05T15:40:23.176Z,27.16
2022-09-05T15:42:59.141Z,27.27
2022-09-05T15:45:35.396Z,26.83
2022-09-05T15:48:12.754Z,27.23
2022-09-05T15:50:55.721Z,26.95
2022-09-05T15:53:28.896Z,26.96
2022-09-05T15:56:01.547Z,26.84
2022-09-05T15:58:29.985Z,26.85
2022-09-05T16:01:32.545Z,26.85
2022-09-05T16:06:57.900Z,27.02
2022-09-05T16:10:27.741Z,26.91
2022-09-05T16:10:36.899Z,26.81
2022-09-05T16:12:42.107Z,26.53
2022-09-05T16:18:10.372Z,26.86
2022-09-05T16:23:24.620Z,26.58
2022-09-05T16:23:29.698Z,26.64
2022-09-05T16:23:46.276Z,26.35
2022-09-05T16:26:26.254Z,26.51
2022-09-05T16:28:59.505Z,26.40
2022-09-05T16:31:34.258Z,26.33
2022-09-05T16:34:02.856Z,26.30
2022-09-05T16:36:56.387Z,26.17
2022-09-05T16:39:52.038Z,26.09
2022-09-05T16:42:37.442Z,26.02
2022-09-05T16:45:41.077Z,25.94
2022-09-05T16:48:30.868Z,25.82
2022-09-05T16:51:20.431Z,25.77
2022-09-05T16:54:29.842Z,25.58
2022-09-05T16:57:02.569Z,25.47
2022-09-05T16:59:34.922Z,25.33
2022-09-05T17:02:20.711Z,25.28
2022-09-05T17:05:29.815Z,25.20
2022-09-05T17:08:15.793Z,25.17
2022-09-05T17:10:57.407Z,25.05
2022-09-05T17:13:48.261Z,24.88
2022-09-05T17:16:30.140Z,24.82
2022-09-05T17:18:59.461Z,24.58
2022-09-05T17:22:32.264Z,24.57
2022-09-05T17:28:54.043Z,24.45
2022-09-05T17:29:27.748Z,24.37
2022-09-05T17:31:46.311Z,24.30
2022-09-05T17:33:45.585Z,24.32
2022-09-05T17:36:18.492Z,24.13
2022-09-05T17:39:31.749Z,24.06
2022-09-05T17:42:34.139Z,23.95
2022-09-05T17:45:22.959Z,23.86
2022-09-05T17:47:55.653Z,23.81
2022-09-05T17:50:28.191Z,23.49
2022-09-05T17:53:25.245Z,23.58
2022-09-05T17:55:55.011Z,23.37
2022-09-05T17:58:48.872Z,23.43
2022-09-05T18:01:19.649Z,23.30
2022-09-05T18:03:47.183Z,23.19
2022-09-05T18:06:14.484Z,23.15
2022-09-05T18:08:45.221Z,23.20
2022-09-05T18:11:25.566Z,23.07
2022-09-05T18:14:24.551Z,23.12
2022-09-05T18:17:35.974Z,23.12
2022-09-05T18:19:41.494Z,22.86
2022-09-05T18:22:26.308Z,22.99
2022-09-05T18:28:20.112Z,22.95
2022-09-05T18:30:50.082Z,22.80
2022-09-05T18:33:55.758Z,22.67
2022-09-05T18:36:34.909Z,22.77
2022-09-05T18:39:37.972Z,22.75
2022-09-05T18:42:33.325Z,22.72
2022-09-05T18:45:14.471Z,22.63
2022-09-05T18:48:00.069Z,22.20
2022-09-05T18:50:34.431Z,22.39
2022-09-05T18:53:09.976Z,22.20
2022-09-05T18:56:12.182Z,22.36
2022-09-05T18:58:51.699Z,22.14
2022-09-05T19:01:46.109Z,21.92
2022-09-05T19:04:49.780Z,22.10
2022-09-05T19:07:26.164Z,21.88
2022-09-05T19:10:34.004Z,21.86
2022-09-05T19:13:13.537Z,21.96
2022-09-05T19:16:06.644Z,22.08
2022-09-05T19:19:10.245Z,22.07
2022-09-05T19:21:45.181Z,22.00
2022-09-05T19:24:13.764Z,21.79
2022-09-05T19:26:41.548Z,21.63
2022-09-05T19:36:45.183Z,21.85
2022-09-05T19:36:55.956Z,21.86
2022-09-05T19:37:06.087Z,21.86
2022-09-05T19:37:49.018Z,21.54
2022-09-05T19:47:31.172Z,21.63
2022-09-05T19:47:49.055Z,21.55
2022-09-05T19:47:50.277Z,21.65
2022-09-05T19:49:07.865Z,21.66
2022-09-05T19:51:36.239Z,21.61
2022-09-05T19:54:06.006Z,21.70
2022-09-05T19:56:36.829Z,21.43
2022-09-05T19:59:34.186Z,21.50
2022-09-05T20:02:02.396Z,21.34
2022-09-05T20:04:33.551Z,21.25
2022-09-05T20:07:09.736Z,21.25
2022-09-05T20:09:45.376Z,21.27
2022-09-05T20:12:24.530Z,21.45
2022-09-05T20:14:52.304Z,21.49
2022-09-05T20:17:23.506Z,21.49
2022-09-05T20:20:13.046Z,21.55
2022-09-05T20:22:49.226Z,21.52
2022-09-05T20:25:35.525Z,21.38
2022-09-05T20:28:37.836Z,21.14
2022-09-05T20:31:10.019Z,21.40
2022-09-05T20:33:51.634Z,21.58
2022-09-05T20:43:25.123Z,21.51
2022-09-05T20:43:26.542Z,21.35
2022-09-05T20:43:27.334Z,21.55
2022-09-05T20:44:50.773Z,21.78
2022-09-05T20:54:05.337Z,21.42
2022-09-05T20:54:21.742Z,21.19
2022-09-05T20:54:23.206Z,21.82
2022-09-05T20:56:02.261Z,21.23
2022-09-05T20:58:31.616Z,21.59
2022-09-05T21:01:21.908Z,21.55
2022-09-05T21:03:57.534Z,21.77
2022-09-05T21:06:34.807Z,21.52
2022-09-05T21:09:24.987Z,21.40
2022-09-05T21:11:54.779Z,21.44
2022-09-05T21:14:23.706Z,21.46
2022-09-05T21:17:15.707Z,21.55
2022-09-05T21:19:53.966Z,21.44
2022-09-05T21:22:24.107Z,21.52
2022-09-05T21:25:15.754Z,21.63
2022-09-05T21:27:54.320Z,21.82
2022-09-05T21:30:30.636Z,21.89
2022-09-05T21:33:09.946Z,21.79
2022-09-05T21:35:44.439Z,21.63
2022-09-05T21:38:13.676Z,21.81
2022-09-05T21:40:41.725Z,21.59
2022-09-05T21:47:34.175Z,21.52
2022-09-05T21:47:41.335Z,21.03
2022-09-05T21:48:44.986Z,20.88
2022-09-05T21:51:15.479Z,21.40
2022-09-05T21:59:13.873Z,21.58
2022-09-05T21:59:27.094Z,21.50
2022-09-05T21:59:46.546Z,21.42
2022-09-05T22:02:16.810Z,21.49
2022-09-05T22:04:44.771Z,21.52
2022-09-05T22:07:31.685Z,21.53
2022-09-05T22:10:05.175Z,21.41
2022-09-05T22:12:39.116Z,21.66
2022-09-05T22:15:27.231Z,21.45
2022-09-05T22:18:06.317Z,21.24
2022-09-05T22:20:44.666Z,21.20
2022-09-05T22:23:12.141Z,21.27
2022-09-05T22:25:39.608Z,21.47
2022-09-05T22:28:15.988Z,21.56
2022-09-05T22:30:43.748Z,21.72
2022-09-05T22:33:12.972Z,21.56
2022-09-05T22:35:40.408Z,21.18
2022-09-05T22:38:16.477Z,21.49
2022-09-05T22:40:47.930Z,21.48
2022-09-05T22:43:16.857Z,21.56
2022-09-05T22:45:44.378Z,21.50
2022-09-05T22:48:13.575Z,21.51
2022-09-05T22:50:41.851Z,21.26
2022-09-05T22:53:09.766Z,21.47
2022-09-05T22:55:39.618Z,21.43
2022-09-05T22:58:07.716Z,21.40
2022-09-05T23:00:35.224Z,21.43
2022-09-05T23:03:04.896Z,21.26
2022-09-05T23:05:32.770Z,21.32
2022-09-05T23:08:00.352Z,21.33
2022-09-05T23:10:28.947Z,21.21
2022-09-05T23:12:56.626Z,21.41
2022-09-05T23:15:24.592Z,21.34
2022-09-05T23:17:56.209Z,21.22
2022-09-05T23:20:24.131Z,21.31
2022-09-05T23:22:51.852Z,21.29
2022-09-05T23:25:19.316Z,21.42
2022-09-05T23:27:46.800Z,21.30
2022-09-05T23:30:14.467Z,21.62
2022-09-05T23:32:50.066Z,21.54
2022-09-05T23:35:18.335Z,21.43
2022-09-05T23:37:46.177Z,21.53
2022-09-05T23:40:14.557Z,21.44
2022-09-05T23:42:42.317Z,21.39
2022-09-05T23:45:10.163Z,21.43
2022-09-05T23:47:37.640Z,21.50
2022-09-05T23:50:05.678Z,21.44
2022-09-05T23:52:40.949Z,21.45
2022-09-05T23:55:09.896Z,21.36
2022-09-05T23:57:37.483Z,21.30
